Strona główna
METAR-TAF:

METAR-TAF

Lotnisko :

Port lotniczy Tampere-Pirkkala

Tampere, Finlandia

Szerokość geograficzna: 61-25N, Długość geograficzna: 023-35E, wysokość: 112 m

Aktualna obserwacja pogody

Raport powstał 38 minut temu, godzina 02:20 UTC
Wiatr 6 kt od zachodnio-północny zachód, zmienny między zachód i północny zachód
Temperatura 4°C
Wilgotność 75%
Ciśnienie 1004 hPa
Widzialność 10 km lub więcej
Zachmurzenie całkowite na wysokości 4800 ft
słaby przelotny opad deszczu

METAR: EFTP 090220Z AUTO 29006KT 260V320 9999 -SHRA OVC048 04/M00 Q1004

czas: 05:58 (02:58 UTC)

Prognoza

Raport powstał 29 minut temu, godzina 02:29 UTC
Prognoza ważna od 09 godzina 03 UTC do 10 godzina 03 UTC
Wiatr 8 kt od zachodnio-północny zachód
Widzialność 10 km lub więcej
Mało chmury na wysokości 2500 ft
Przejściowo
od 09 godzina 09 UTC do 09 godzina 15 UTC
Mało chmury na wysokości 3500 ft, Cumulonimbus.

TAF: EFTP 090229Z 0903/1003 29008KT 9999 FEW025 TEMPO 0909/0915 FEW035CB

Obserwacja i prognoza pogody dla ponad 4000 lotnisk (raport METAR i TAF).

Dostępne stacje oznaczono żółtymi i czerwonymi punktami na mapie.

Najedź kursorem aby zobaczyć nazwę stacji.

Kliknij aby zobaczyć obserwacje i prognozy pogody.

Aby zmienić mapę: kliknij na zielony przycisk z czarnym krzyżykiem, aby powiększyć; na zielony przycisk z myślnikiem, aby pomniejszyć; na zielone strzałki, aby przejść do map sąsiednich.


METAR-TAF: